Crandalls Lodge, Iowa
Current Conditions -  °F | °C
As of 8:14 PM on Saturday 25 Oct 2014 (Local Time) from KMJQ Reporting Station
Clear Clear  
Wind Chill: 50°   Ceiling: Unl
Heat Index: 50°   Visibility: 10mi
Dew Point: 30°   Wind: 3mph
Humidity: 47%   Direction: 330°NNW
Pressure: 30.09"   Gusts: NA
Location:  43.4265°N, 95.1547°W
Report Text: KMJQ 260114Z AUTO 33003KT 10SM CLR 10/M01 A3009 RMK AO2
Loading
Personal Weather Stations






























Interactive Weather Map
Tropical Storm Tracking
New forecast layout! Learn more

10-Day Weather Forecast

Advertisements
Track Severe Weather on mobile